createdAt,value
2019-02-10T00:00:03.294Z,38.60
2019-02-10T00:01:03.255Z,37.70
2019-02-10T00:02:03.266Z,38.20
2019-02-10T00:03:03.261Z,38.18
2019-02-10T00:04:03.222Z,38.30
2019-02-10T00:05:03.203Z,37.70
2019-02-10T00:06:03.178Z,37.68
2019-02-10T00:07:03.204Z,37.78
2019-02-10T00:08:03.222Z,37.88
2019-02-10T00:09:03.195Z,38.28
2019-02-10T00:10:03.164Z,37.49
2019-02-10T00:11:03.162Z,37.70
2019-02-10T00:12:03.129Z,37.80
2019-02-10T00:13:03.140Z,38.00
2019-02-10T00:14:03.145Z,38.30
2019-02-10T00:15:03.090Z,38.28
2019-02-10T00:16:03.073Z,38.28
2019-02-10T00:17:03.098Z,38.30
2019-02-10T00:18:03.080Z,38.60
2019-02-10T00:19:03.071Z,38.50
2019-02-10T00:20:03.066Z,38.40
2019-02-10T00:21:03.062Z,38.40
2019-02-10T00:22:03.039Z,37.60
2019-02-10T00:23:03.063Z,38.40
2019-02-10T00:24:03.060Z,37.80
2019-02-10T00:25:03.044Z,38.59
2019-02-10T00:26:03.032Z,38.40
2019-02-10T00:27:02.994Z,38.71
2019-02-10T00:28:02.979Z,38.30
2019-02-10T00:29:02.934Z,38.50
2019-02-10T00:30:02.968Z,38.60
2019-02-10T00:31:02.992Z,37.60
2019-02-10T00:32:02.908Z,38.48
2019-02-10T00:33:02.891Z,38.48
2019-02-10T00:34:02.906Z,38.40
2019-02-10T00:35:02.916Z,38.50
2019-02-10T00:36:02.859Z,38.50
2019-02-10T00:37:02.888Z,38.48
2019-02-10T00:38:02.886Z,38.39
2019-02-10T00:39:02.858Z,38.40
2019-02-10T00:40:02.855Z,38.59
2019-02-10T00:41:02.836Z,38.50
2019-02-10T00:42:02.793Z,38.40
2019-02-10T00:43:02.802Z,38.50
2019-02-10T00:44:02.807Z,38.40
2019-02-10T00:45:02.754Z,38.40
2019-02-10T00:46:02.779Z,38.30
2019-02-10T00:47:02.734Z,38.50
2019-02-10T00:48:02.726Z,38.40
2019-02-10T00:49:02.733Z,38.40
2019-02-10T00:50:02.704Z,38.71
2019-02-10T00:51:02.688Z,38.50
2019-02-10T00:52:02.680Z,38.71
2019-02-10T00:53:02.683Z,38.71
2019-02-10T00:54:02.690Z,38.60
2019-02-10T00:55:02.658Z,38.40
2019-02-10T00:56:02.659Z,38.71
2019-02-10T00:57:02.631Z,38.71
2019-02-10T00:58:02.654Z,38.50
2019-02-10T00:59:02.643Z,38.48
2019-02-10T01:00:02.598Z,37.60
2019-02-10T01:01:02.605Z,38.50
2019-02-10T01:02:02.609Z,38.69
2019-02-10T01:03:02.556Z,38.60
2019-02-10T01:04:02.585Z,38.50
2019-02-10T01:05:02.550Z,38.48
2019-02-10T01:06:02.528Z,38.50
2019-02-10T01:07:02.509Z,38.60
2019-02-10T01:08:02.551Z,38.40
2019-02-10T01:09:02.527Z,38.30
2019-02-10T01:10:02.486Z,38.20
2019-02-10T01:11:02.477Z,38.40
2019-02-10T01:12:02.479Z,38.60
2019-02-10T01:13:02.448Z,38.50
2019-02-10T01:14:02.488Z,38.20
2019-02-10T01:15:02.438Z,38.28
2019-02-10T01:16:02.451Z,38.30
2019-02-10T01:17:02.443Z,38.30
2019-02-10T01:18:02.424Z,38.40
2019-02-10T01:19:02.472Z,38.30
2019-02-10T01:20:02.453Z,38.30
2019-02-10T01:21:02.405Z,38.40
2019-02-10T01:22:02.384Z,38.40
2019-02-10T01:23:02.394Z,38.40
2019-02-10T01:24:02.421Z,38.40
2019-02-10T01:25:02.363Z,38.50
2019-02-10T01:26:02.334Z,38.20
2019-02-10T01:27:02.376Z,37.70
2019-02-10T01:28:02.295Z,38.50
2019-02-10T01:29:04.246Z,38.48
2019-02-10T01:30:02.270Z,38.50
2019-02-10T01:31:02.398Z,37.70
2019-02-10T01:32:02.242Z,38.48
2019-02-10T01:33:02.234Z,38.30
2019-02-10T01:34:02.230Z,38.10
2019-02-10T01:35:02.251Z,38.40
2019-02-10T01:36:02.196Z,38.40
2019-02-10T01:37:02.192Z,38.50
2019-02-10T01:38:02.196Z,38.30
2019-02-10T01:39:02.182Z,37.80
2019-02-10T01:40:02.184Z,38.40
2019-02-10T01:41:02.152Z,38.48
2019-02-10T01:42:02.144Z,38.40
2019-02-10T01:43:02.131Z,38.20
2019-02-10T01:44:02.122Z,38.00
2019-02-10T01:45:02.171Z,38.28
2019-02-10T01:46:02.093Z,38.20
2019-02-10T01:47:02.091Z,38.20
2019-02-10T01:48:02.084Z,37.70
2019-02-10T01:49:02.111Z,37.70
2019-02-10T01:50:02.077Z,37.70
2019-02-10T01:51:02.057Z,38.00
2019-02-10T01:52:02.024Z,37.70
2019-02-10T01:53:02.012Z,37.49
2019-02-10T01:54:02.009Z,37.60
2019-02-10T01:55:01.992Z,37.48
2019-02-10T01:56:01.988Z,37.49
2019-02-10T01:57:01.997Z,37.80
2019-02-10T01:58:01.977Z,37.60
2019-02-10T01:59:01.951Z,38.00
2019-02-10T02:00:01.962Z,37.70
2019-02-10T02:01:01.926Z,37.49
2019-02-10T02:02:01.916Z,37.80
2019-02-10T02:03:01.906Z,38.10
2019-02-10T02:04:01.896Z,37.49
2019-02-10T02:05:01.886Z,37.70
2019-02-10T02:06:01.967Z,37.90
2019-02-10T02:07:01.863Z,37.70
2019-02-10T02:08:01.851Z,37.78
2019-02-10T02:09:01.836Z,38.00
2019-02-10T02:10:01.844Z,37.90
2019-02-10T02:11:01.833Z,37.68
2019-02-10T02:12:01.804Z,37.80
2019-02-10T02:13:01.788Z,37.90
2019-02-10T02:14:01.808Z,37.90
2019-02-10T02:15:01.778Z,38.00
2019-02-10T02:16:01.786Z,37.80
2019-02-10T02:17:01.750Z,38.00
2019-02-10T02:18:01.790Z,37.49
2019-02-10T02:19:01.784Z,37.80
2019-02-10T02:20:01.742Z,37.70
2019-02-10T02:21:01.794Z,37.49
2019-02-10T02:22:01.798Z,37.70
2019-02-10T02:23:01.721Z,38.20
2019-02-10T02:24:01.702Z,38.00
2019-02-10T02:25:01.745Z,37.70
2019-02-10T02:26:01.743Z,37.49
2019-02-10T02:27:01.677Z,37.70
2019-02-10T02:28:01.681Z,38.00
2019-02-10T02:29:01.624Z,37.78
2019-02-10T02:30:01.628Z,37.98
2019-02-10T02:31:01.635Z,37.80
2019-02-10T02:32:01.586Z,37.68
2019-02-10T02:33:01.571Z,37.88
2019-02-10T02:34:01.561Z,37.88
2019-02-10T02:35:01.579Z,37.68
2019-02-10T02:36:01.570Z,37.88
2019-02-10T02:37:07.987Z,37.88
2019-02-10T02:38:01.541Z,37.70
2019-02-10T02:39:01.543Z,37.78
2019-02-10T02:40:01.542Z,37.98
2019-02-10T02:41:01.515Z,37.98
2019-02-10T02:42:01.493Z,37.78
2019-02-10T02:43:01.477Z,37.48
2019-02-10T02:44:01.464Z,38.08
2019-02-10T02:45:01.445Z,37.88
2019-02-10T02:46:01.466Z,38.28
2019-02-10T02:47:01.461Z,38.18
2019-02-10T02:48:01.428Z,38.39
2019-02-10T02:49:01.401Z,38.28
2019-02-10T02:50:01.385Z,37.78
2019-02-10T02:51:01.400Z,37.70
2019-02-10T02:52:01.371Z,38.28
2019-02-10T02:53:01.370Z,38.59
2019-02-10T02:54:01.352Z,39.01
2019-02-10T02:55:01.333Z,38.71
2019-02-10T02:56:01.350Z,38.50
2019-02-10T02:57:01.329Z,38.40
2019-02-10T02:58:01.323Z,38.40
2019-02-10T02:59:01.296Z,39.31
2019-02-10T03:00:01.288Z,38.69
2019-02-10T03:01:01.304Z,38.40
2019-02-10T03:02:01.268Z,38.71
2019-02-10T03:03:01.258Z,38.71
2019-02-10T03:04:01.277Z,39.11
2019-02-10T03:05:01.249Z,39.01
2019-02-10T03:06:01.249Z,38.71
2019-02-10T03:07:01.208Z,39.11
2019-02-10T03:08:01.191Z,39.01
2019-02-10T03:09:01.181Z,39.11
2019-02-10T03:10:01.179Z,38.81
2019-02-10T03:11:01.196Z,38.50
2019-02-10T03:12:01.152Z,39.01
2019-02-10T03:13:01.141Z,39.11
2019-02-10T03:14:01.129Z,39.11
2019-02-10T03:15:01.136Z,38.40
2019-02-10T03:16:01.130Z,38.71
2019-02-10T03:17:01.099Z,39.41
2019-02-10T03:18:01.117Z,38.71
2019-02-10T03:19:01.115Z,39.11
2019-02-10T03:20:01.098Z,38.60
2019-02-10T03:21:01.163Z,39.01
2019-02-10T03:22:01.071Z,38.81
2019-02-10T03:23:01.068Z,39.41
2019-02-10T03:24:01.053Z,39.01
2019-02-10T03:25:01.054Z,38.91
2019-02-10T03:26:01.090Z,38.91
2019-02-10T03:27:01.022Z,38.81
2019-02-10T03:28:00.988Z,38.71
2019-02-10T03:29:00.971Z,39.01
2019-02-10T03:30:00.981Z,38.81
2019-02-10T03:31:00.993Z,38.81
2019-02-10T03:32:00.933Z,39.21
2019-02-10T03:33:00.919Z,39.01
2019-02-10T03:34:00.913Z,38.81
2019-02-10T03:35:00.893Z,39.51
2019-02-10T03:36:00.926Z,39.11
2019-02-10T03:37:00.902Z,38.91
2019-02-10T03:38:00.869Z,38.81
2019-02-10T03:39:00.856Z,39.01
2019-02-10T03:40:00.849Z,39.21
2019-02-10T03:41:00.861Z,39.21
2019-02-10T03:42:00.906Z,39.11
2019-02-10T03:43:00.870Z,39.01
2019-02-10T03:44:00.802Z,39.21
2019-02-10T03:45:00.879Z,39.11
2019-02-10T03:46:00.842Z,38.91
2019-02-10T03:47:00.772Z,39.01
2019-02-10T03:48:00.760Z,39.21
2019-02-10T03:49:00.767Z,39.01
2019-02-10T03:50:00.788Z,38.91
2019-02-10T03:51:00.744Z,38.91
2019-02-10T03:52:00.749Z,39.21
2019-02-10T03:53:01.090Z,39.21
2019-02-10T03:54:00.699Z,39.21
2019-02-10T03:55:00.684Z,39.01
2019-02-10T03:56:00.670Z,38.81
2019-02-10T03:57:00.704Z,39.61
2019-02-10T03:58:00.653Z,38.91
2019-02-10T03:59:00.665Z,39.51
2019-02-10T04:00:00.621Z,39.41
2019-02-10T04:01:00.612Z,39.21
2019-02-10T04:02:00.633Z,39.21
2019-02-10T04:03:00.589Z,39.43
2019-02-10T04:04:00.594Z,39.11
2019-02-10T04:05:00.571Z,39.21
2019-02-10T04:06:00.573Z,39.21
2019-02-10T04:07:00.581Z,39.51
2019-02-10T04:08:00.534Z,39.51
2019-02-10T04:09:00.523Z,39.41
2019-02-10T04:10:00.556Z,39.51
2019-02-10T04:11:00.511Z,39.51
2019-02-10T04:12:00.528Z,39.31
2019-02-10T04:13:00.506Z,39.13
2019-02-10T04:14:00.586Z,39.21
2019-02-10T04:15:00.454Z,39.43
2019-02-10T04:16:00.461Z,39.43
2019-02-10T04:17:00.477Z,39.43
2019-02-10T04:18:00.474Z,39.31
2019-02-10T04:19:00.459Z,39.73
2019-02-10T04:20:00.435Z,39.41
2019-02-10T04:21:00.437Z,39.11
2019-02-10T04:22:00.444Z,39.23
2019-02-10T04:23:00.406Z,39.21
2019-02-10T04:24:00.424Z,39.13
2019-02-10T04:25:00.412Z,39.43
2019-02-10T04:26:00.373Z,39.13
2019-02-10T04:27:00.570Z,39.13
2019-02-10T04:28:00.324Z,39.73
2019-02-10T04:29:00.367Z,39.21
2019-02-10T04:30:00.320Z,40.03
2019-02-10T04:31:00.291Z,39.13
2019-02-10T04:32:00.303Z,39.43
2019-02-10T04:33:00.299Z,39.72
2019-02-10T04:34:00.465Z,39.51
2019-02-10T04:35:00.294Z,39.11
2019-02-10T04:36:00.239Z,39.33
2019-02-10T04:37:00.266Z,39.11
2019-02-10T04:38:00.225Z,40.01
2019-02-10T04:39:00.205Z,39.21
2019-02-10T04:40:00.276Z,39.53
2019-02-10T04:41:00.169Z,39.31
2019-02-10T04:42:00.194Z,39.21
2019-02-10T04:43:00.167Z,39.11
2019-02-10T04:44:00.143Z,39.11
2019-02-10T04:45:00.366Z,39.92
2019-02-10T04:46:00.189Z,39.92
2019-02-10T04:47:00.140Z,40.12
2019-02-10T04:48:00.110Z,40.12
2019-02-10T04:49:00.097Z,39.21
2019-02-10T04:50:00.344Z,39.21
2019-02-10T04:51:00.068Z,39.81
2019-02-10T04:52:00.113Z,39.43
2019-02-10T04:53:00.048Z,39.31
2019-02-10T04:54:00.057Z,40.01
2019-02-10T04:55:00.036Z,40.01
2019-02-10T04:56:00.035Z,39.81
2019-02-10T04:57:00.104Z,39.51
2019-02-10T04:58:00.002Z,40.03
2019-02-10T04:58:59.986Z,39.72
2019-02-10T04:59:59.965Z,40.22
2019-02-10T05:00:59.972Z,39.63
2019-02-10T05:01:59.995Z,40.01
2019-02-10T05:02:59.940Z,40.01
2019-02-10T05:03:59.955Z,39.63
2019-02-10T05:04:59.916Z,39.63
2019-02-10T05:05:59.918Z,39.21
2019-02-10T05:06:59.908Z,40.03
2019-02-10T05:07:59.890Z,39.83
2019-02-10T05:08:59.900Z,40.52
2019-02-10T05:09:59.882Z,39.94
2019-02-10T05:10:59.866Z,40.52
2019-02-10T05:11:59.891Z,40.23
2019-02-10T05:12:59.916Z,40.42
2019-02-10T05:13:59.823Z,40.32
2019-02-10T05:14:59.822Z,39.83
2019-02-10T05:15:59.809Z,39.83
2019-02-10T05:17:02.493Z,40.23
2019-02-10T05:17:59.807Z,40.74
2019-02-10T05:18:59.811Z,39.43
2019-02-10T05:19:59.786Z,40.44
2019-02-10T05:20:59.771Z,40.03
2019-02-10T05:21:59.768Z,40.23
2019-02-10T05:22:59.821Z,39.83
2019-02-10T05:24:03.527Z,40.54
2019-02-10T05:24:59.723Z,40.54
2019-02-10T05:25:59.719Z,40.23
2019-02-10T05:26:59.721Z,40.44
2019-02-10T05:27:59.700Z,40.94
2019-02-10T05:28:59.653Z,40.64
2019-02-10T05:29:59.882Z,40.84
2019-02-10T05:30:59.820Z,40.74
2019-02-10T05:31:59.619Z,40.34
2019-02-10T05:32:59.642Z,40.74
2019-02-10T05:33:59.604Z,39.83
2019-02-10T05:34:59.588Z,40.44
2019-02-10T05:35:59.582Z,40.74
2019-02-10T05:36:59.573Z,40.54
2019-02-10T05:38:04.307Z,40.84
2019-02-10T05:38:59.542Z,40.74
2019-02-10T05:39:59.549Z,40.54
2019-02-10T05:40:59.526Z,40.54
2019-02-10T05:41:59.521Z,40.44
2019-02-10T05:42:59.544Z,40.44
2019-02-10T05:43:59.489Z,41.14
2019-02-10T05:44:59.481Z,41.05
2019-02-10T05:45:59.468Z,40.74
2019-02-10T05:46:59.460Z,40.64
2019-02-10T05:47:59.485Z,40.44
2019-02-10T05:48:59.522Z,40.44
2019-02-10T05:49:59.444Z,40.84
2019-02-10T05:50:59.414Z,40.84
2019-02-10T05:51:59.401Z,40.64
2019-02-10T05:52:59.414Z,40.84
2019-02-10T05:53:59.387Z,40.84
2019-02-10T05:54:59.394Z,40.44
2019-02-10T05:55:59.368Z,40.44
2019-02-10T05:56:59.346Z,40.34
2019-02-10T05:57:59.393Z,40.74
2019-02-10T05:58:59.331Z,41.05
2019-02-10T05:59:59.342Z,40.64
2019-02-10T06:00:59.316Z,40.74
2019-02-10T06:01:59.303Z,40.34
2019-02-10T06:02:59.323Z,40.44
2019-02-10T06:03:59.274Z,40.94
2019-02-10T06:04:59.263Z,41.05
2019-02-10T06:05:59.266Z,40.94
2019-02-10T06:06:59.321Z,40.74
2019-02-10T06:07:59.289Z,40.44
2019-02-10T06:08:59.244Z,40.84
2019-02-10T06:09:59.205Z,40.34
2019-02-10T06:10:59.196Z,40.94
2019-02-10T06:11:59.191Z,40.74
2019-02-10T06:12:59.215Z,40.23
2019-02-10T06:13:59.187Z,40.44
2019-02-10T06:14:59.161Z,40.54
2019-02-10T06:15:59.148Z,40.44
2019-02-10T06:16:59.124Z,40.64
2019-02-10T06:17:59.205Z,40.74
2019-02-10T06:18:59.144Z,40.34
2019-02-10T06:19:59.182Z,40.22
2019-02-10T06:20:59.162Z,40.54
2019-02-10T06:21:59.128Z,41.14
2019-02-10T06:22:59.159Z,40.62
2019-02-10T06:23:59.084Z,40.12
2019-02-10T06:24:59.096Z,40.74
2019-02-10T06:25:59.060Z,40.92
2019-02-10T06:26:59.068Z,40.52
2019-02-10T06:27:59.041Z,40.82
2019-02-10T06:28:59.016Z,41.05
2019-02-10T06:29:59.006Z,40.84
2019-02-10T06:30:58.993Z,41.14
2019-02-10T06:31:59.063Z,41.05
2019-02-10T06:32:58.959Z,40.94
2019-02-10T06:33:58.968Z,40.74
2019-02-10T06:34:58.950Z,40.42
2019-02-10T06:35:58.931Z,40.52
2019-02-10T06:36:58.914Z,40.54
2019-02-10T06:37:58.899Z,41.05
2019-02-10T06:38:58.989Z,40.64
2019-02-10T06:39:58.907Z,40.34
2019-02-10T06:40:58.858Z,40.44
2019-02-10T06:41:58.875Z,40.23
2019-02-10T06:42:58.875Z,40.92
2019-02-10T06:43:58.852Z,40.52
2019-02-10T06:44:58.823Z,40.94
2019-02-10T06:45:58.808Z,40.42
2019-02-10T06:46:58.835Z,40.74
2019-02-10T06:47:58.786Z,40.52
2019-02-10T06:48:58.810Z,40.92
2019-02-10T06:49:58.776Z,40.62
2019-02-10T06:50:58.848Z,40.92
2019-02-10T06:51:58.745Z,41.05
2019-02-10T06:52:58.734Z,40.44
2019-02-10T06:53:58.753Z,41.05
2019-02-10T06:54:58.780Z,40.82
2019-02-10T06:55:58.714Z,40.82
2019-02-10T06:56:58.704Z,41.14
2019-02-10T06:57:58.672Z,40.62
2019-02-10T06:58:58.782Z,40.74
2019-02-10T06:59:58.665Z,40.84
2019-02-10T07:00:58.664Z,40.54
2019-02-10T07:01:58.664Z,40.34
2019-02-10T07:02:58.626Z,40.54
2019-02-10T07:03:58.639Z,40.84
2019-02-10T07:04:58.622Z,40.44
2019-02-10T07:05:58.651Z,40.94
2019-02-10T07:06:58.597Z,40.52
2019-02-10T07:07:58.574Z,40.62
2019-02-10T07:08:58.584Z,41.02
2019-02-10T07:09:58.560Z,40.62
2019-02-10T07:10:58.623Z,40.54
2019-02-10T07:11:58.528Z,40.32
2019-02-10T07:12:58.511Z,41.13
2019-02-10T07:13:58.542Z,40.74
2019-02-10T07:14:58.571Z,40.12
2019-02-10T07:15:58.490Z,40.72
2019-02-10T07:16:58.481Z,40.52
2019-02-10T07:17:58.511Z,40.42
2019-02-10T07:18:58.545Z,40.52
2019-02-10T07:19:58.476Z,40.52
2019-02-10T07:20:58.468Z,40.52
2019-02-10T07:21:58.450Z,40.22
2019-02-10T07:22:58.433Z,40.52
2019-02-10T07:23:58.649Z,40.52
2019-02-10T07:24:58.422Z,40.42
2019-02-10T07:25:58.405Z,40.72
2019-02-10T07:26:58.408Z,40.42
2019-02-10T07:27:58.370Z,40.62
2019-02-10T07:28:58.380Z,40.72
2019-02-10T07:29:58.337Z,40.72
2019-02-10T07:30:58.401Z,40.62
2019-02-10T07:31:58.309Z,40.52
2019-02-10T07:32:58.312Z,40.22
2019-02-10T07:33:58.709Z,40.82
2019-02-10T07:34:58.283Z,40.42
2019-02-10T07:35:58.298Z,40.62
2019-02-10T07:36:58.265Z,40.52
2019-02-10T07:37:58.243Z,40.82
2019-02-10T07:38:58.337Z,40.72
2019-02-10T07:39:58.227Z,40.82
2019-02-10T07:40:58.222Z,40.42
2019-02-10T07:41:58.275Z,40.42
2019-02-10T07:42:58.186Z,40.42
2019-02-10T07:43:58.202Z,40.72
2019-02-10T07:44:58.175Z,40.42
2019-02-10T07:45:58.152Z,40.42
2019-02-10T07:46:58.157Z,40.32
2019-02-10T07:47:58.139Z,40.62
2019-02-10T07:48:58.306Z,40.22
2019-02-10T07:49:58.110Z,40.52
2019-02-10T07:50:58.120Z,40.20
2019-02-10T07:51:58.093Z,40.42
2019-02-10T07:52:58.087Z,40.42
2019-02-10T07:53:58.100Z,40.62
2019-02-10T07:54:58.076Z,40.62
2019-02-10T07:55:58.060Z,40.62
2019-02-10T07:56:58.094Z,40.72
2019-02-10T07:57:58.048Z,40.32
2019-02-10T07:58:58.041Z,40.62
2019-02-10T07:59:57.998Z,40.52
2019-02-10T08:00:58.039Z,40.50
2019-02-10T08:01:57.978Z,40.60
2019-02-10T08:02:57.970Z,39.41
2019-02-10T08:03:58.002Z,40.50
2019-02-10T08:04:57.967Z,39.92
2019-02-10T08:05:59.747Z,40.62
2019-02-10T08:06:57.921Z,40.72
2019-02-10T08:07:57.929Z,40.52
2019-02-10T08:08:57.903Z,40.50
2019-02-10T08:09:57.901Z,40.12
2019-02-10T08:10:57.966Z,40.52
2019-02-10T08:11:57.886Z,40.50
2019-02-10T08:12:57.868Z,40.30
2019-02-10T08:13:57.846Z,40.42
2019-02-10T08:14:57.838Z,40.70
2019-02-10T08:15:57.834Z,40.20
2019-02-10T08:16:57.827Z,40.30
2019-02-10T08:17:57.866Z,40.80
2019-02-10T08:18:57.857Z,40.60
2019-02-10T08:19:57.920Z,40.60
2019-02-10T08:20:57.813Z,40.80
2019-02-10T08:21:57.786Z,40.60
2019-02-10T08:22:57.792Z,40.40
2019-02-10T08:23:57.779Z,40.80
2019-02-10T08:24:57.741Z,40.60
2019-02-10T08:25:57.794Z,40.40
2019-02-10T08:26:57.764Z,40.80
2019-02-10T08:27:57.704Z,40.70
2019-02-10T08:28:57.703Z,40.50
2019-02-10T08:29:57.710Z,40.40
2019-02-10T08:30:57.671Z,40.60
2019-02-10T08:31:57.676Z,40.40
2019-02-10T08:32:57.656Z,40.72
2019-02-10T08:33:57.666Z,40.40
2019-02-10T08:34:57.691Z,40.60
2019-02-10T08:35:57.716Z,40.70
2019-02-10T08:36:57.681Z,40.10
2019-02-10T08:37:57.583Z,40.60
2019-02-10T08:38:57.581Z,40.70
2019-02-10T08:39:57.611Z,40.40
2019-02-10T08:40:57.570Z,40.60
2019-02-10T08:41:57.549Z,39.50
2019-02-10T08:42:57.654Z,40.20
2019-02-10T08:43:57.549Z,39.39
2019-02-10T08:44:57.542Z,40.50
2019-02-10T08:45:57.521Z,40.40
2019-02-10T08:46:57.488Z,40.50
2019-02-10T08:47:57.499Z,40.91
2019-02-10T08:48:57.458Z,40.20
2019-02-10T08:49:57.504Z,40.70
2019-02-10T08:50:57.462Z,40.50
2019-02-10T08:51:57.456Z,40.60
2019-02-10T08:52:57.425Z,40.60
2019-02-10T08:53:57.411Z,40.30
2019-02-10T08:54:57.442Z,39.70
2019-02-10T08:55:57.441Z,40.40
2019-02-10T08:56:57.391Z,40.40
2019-02-10T08:57:57.397Z,40.30
2019-02-10T08:58:57.383Z,39.50
2019-02-10T08:59:57.397Z,40.60
2019-02-10T09:00:57.340Z,40.40
2019-02-10T09:01:57.322Z,39.39
2019-02-10T09:02:57.312Z,39.59
2019-02-10T09:03:57.340Z,40.40
2019-02-10T09:04:57.355Z,40.50
2019-02-10T09:05:57.296Z,40.30
2019-02-10T09:06:57.339Z,40.91
2019-02-10T09:07:57.267Z,40.20
2019-02-10T09:09:02.431Z,39.70
2019-02-10T09:09:57.309Z,40.30
2019-02-10T09:10:57.229Z,40.30
2019-02-10T09:11:57.232Z,40.60
2019-02-10T09:12:57.222Z,39.59
2019-02-10T09:13:57.192Z,40.60
2019-02-10T09:14:57.221Z,40.40
2019-02-10T09:15:57.193Z,40.80
2019-02-10T09:16:57.184Z,40.20
2019-02-10T09:17:57.195Z,40.70
2019-02-10T09:18:57.284Z,40.30
2019-02-10T09:19:57.251Z,39.50
2019-02-10T09:20:57.189Z,40.58
2019-02-10T09:21:57.158Z,40.40
2019-02-10T09:22:57.130Z,40.70
2019-02-10T09:23:57.128Z,40.30
2019-02-10T09:24:57.112Z,40.50
2019-02-10T09:25:57.111Z,40.40
2019-02-10T09:26:57.115Z,39.88
2019-02-10T09:27:57.049Z,40.30
2019-02-10T09:28:57.059Z,40.78
2019-02-10T09:29:57.068Z,41.00
2019-02-10T09:30:57.037Z,40.58
2019-02-10T09:31:57.001Z,40.89
2019-02-10T09:32:57.036Z,40.40
2019-02-10T09:33:56.991Z,40.38
2019-02-10T09:34:56.996Z,40.60
2019-02-10T09:35:56.958Z,40.91
2019-02-10T09:36:56.964Z,40.30
2019-02-10T09:37:56.949Z,40.40
2019-02-10T09:38:56.932Z,40.78
2019-02-10T09:39:56.954Z,40.69
2019-02-10T09:40:56.963Z,40.70
2019-02-10T09:41:56.903Z,40.89
2019-02-10T09:42:56.896Z,40.58
2019-02-10T09:43:56.883Z,40.38
2019-02-10T09:44:56.934Z,40.99
2019-02-10T09:45:56.866Z,40.89
2019-02-10T09:46:56.845Z,40.58
2019-02-10T09:47:56.839Z,40.80
2019-02-10T09:48:56.886Z,40.48
2019-02-10T09:49:56.824Z,40.58
2019-02-10T09:50:56.825Z,40.89
2019-02-10T09:51:56.903Z,40.89
2019-02-10T09:52:56.769Z,40.40
2019-02-10T09:53:56.782Z,40.80
2019-02-10T09:54:56.793Z,40.91
2019-02-10T09:55:56.781Z,40.78
2019-02-10T09:56:56.734Z,40.48
2019-02-10T09:57:56.725Z,40.69
2019-02-10T09:58:56.703Z,40.89
2019-02-10T09:59:56.696Z,40.20
2019-02-10T10:00:56.720Z,40.18
2019-02-10T10:01:56.674Z,40.69
2019-02-10T10:02:56.666Z,40.58
2019-02-10T10:03:56.675Z,41.00
2019-02-10T10:04:56.655Z,40.40
2019-02-10T10:05:56.662Z,40.60
2019-02-10T10:06:58.087Z,40.89
2019-02-10T10:07:56.618Z,40.50
2019-02-10T10:08:56.609Z,40.78
2019-02-10T10:09:56.656Z,40.69
2019-02-10T10:10:56.613Z,40.80
2019-02-10T10:11:56.570Z,40.38
2019-02-10T10:12:56.552Z,40.89
2019-02-10T10:13:56.550Z,40.99
2019-02-10T10:14:56.557Z,40.60
2019-02-10T10:15:56.580Z,40.28
2019-02-10T10:16:56.585Z,40.70
2019-02-10T10:17:56.534Z,40.58
2019-02-10T10:18:56.730Z,40.89
2019-02-10T10:19:56.726Z,40.89
2019-02-10T10:20:56.654Z,40.78
2019-02-10T10:21:56.493Z,40.58
2019-02-10T10:22:56.474Z,40.99
2019-02-10T10:23:56.571Z,40.50
2019-02-10T10:24:56.458Z,39.37
2019-02-10T10:25:56.520Z,40.99
2019-02-10T10:26:56.455Z,40.38
2019-02-10T10:27:56.594Z,40.38
2019-02-10T10:28:56.385Z,40.78
2019-02-10T10:29:56.382Z,40.58
2019-02-10T10:30:56.390Z,40.77
2019-02-10T10:31:56.351Z,40.89
2019-02-10T10:32:56.395Z,41.99
2019-02-10T10:33:56.402Z,41.09
2019-02-10T10:34:56.329Z,41.97
2019-02-10T10:35:56.338Z,42.38
2019-02-10T10:36:56.295Z,42.98
2019-02-10T10:37:56.285Z,43.68
2019-02-10T10:38:56.290Z,44.49
2019-02-10T10:39:56.293Z,44.69
2019-02-10T10:40:56.289Z,44.79
2019-02-10T10:41:56.238Z,46.50
2019-02-10T10:42:56.379Z,48.61
2019-02-10T10:43:56.219Z,48.82
2019-02-10T10:44:56.202Z,48.01
2019-02-10T10:45:56.317Z,46.70
2019-02-10T10:46:56.187Z,49.32
2019-02-10T10:47:55.190Z,49.42
2019-02-10T10:48:56.162Z,47.81
2019-02-10T10:49:56.157Z,49.52
2019-02-10T10:50:55.139Z,49.12
2019-02-10T10:51:56.173Z,50.43
2019-02-10T10:52:56.110Z,49.73
2019-02-10T10:53:56.122Z,50.23
2019-02-10T10:54:56.114Z,48.72
2019-02-10T10:55:56.094Z,50.43
2019-02-10T10:56:56.103Z,50.02
2019-02-10T10:57:56.066Z,50.23
2019-02-10T10:58:56.071Z,49.62
2019-02-10T10:59:56.057Z,50.23
2019-02-10T11:00:56.039Z,50.23
2019-02-10T11:01:56.054Z,50.02
2019-02-10T11:02:56.022Z,50.43
2019-02-10T11:03:56.104Z,49.82
2019-02-10T11:04:56.001Z,50.53
2019-02-10T11:05:56.028Z,50.93
2019-02-10T11:06:55.986Z,50.13
2019-02-10T11:07:56.031Z,50.63
2019-02-10T11:08:55.950Z,50.13
2019-02-10T11:09:55.929Z,49.32
2019-02-10T11:10:55.923Z,49.52
2019-02-10T11:11:55.957Z,49.52
2019-02-10T11:12:55.955Z,48.82
2019-02-10T11:13:55.941Z,48.82
2019-02-10T11:14:55.933Z,48.82
2019-02-10T11:15:57.220Z,49.62
2019-02-10T11:16:55.872Z,49.42
2019-02-10T11:17:56.078Z,49.32
2019-02-10T11:18:55.872Z,49.42
2019-02-10T11:19:55.881Z,49.42
2019-02-10T11:20:55.853Z,48.61
2019-02-10T11:21:55.987Z,48.72
2019-02-10T11:22:55.898Z,48.52
2019-02-10T11:23:55.818Z,48.52
2019-02-10T11:24:55.768Z,48.52
2019-02-10T11:25:55.822Z,48.21
2019-02-10T11:26:55.794Z,49.12
2019-02-10T11:27:55.793Z,47.91
2019-02-10T11:28:55.726Z,47.99
2019-02-10T11:29:55.710Z,48.01
2019-02-10T11:30:55.715Z,48.01
2019-02-10T11:31:55.691Z,48.21
2019-02-10T11:32:55.708Z,47.71
2019-02-10T11:33:55.675Z,47.59
2019-02-10T11:34:56.416Z,47.81
2019-02-10T11:35:55.646Z,47.79
2019-02-10T11:36:55.647Z,47.61
2019-02-10T11:37:55.653Z,46.80
2019-02-10T11:38:55.626Z,46.80
2019-02-10T11:39:55.607Z,46.80
2019-02-10T11:40:55.612Z,46.70
2019-02-10T11:41:55.584Z,46.60
2019-02-10T11:42:55.596Z,47.00
2019-02-10T11:43:55.563Z,47.11
2019-02-10T11:44:55.580Z,47.28
2019-02-10T11:45:55.544Z,47.08
2019-02-10T11:46:55.552Z,47.08
2019-02-10T11:47:55.538Z,46.58
2019-02-10T11:48:55.509Z,46.50
2019-02-10T11:49:55.524Z,46.50
2019-02-10T11:50:55.484Z,46.30
2019-02-10T11:51:55.476Z,46.38
2019-02-10T11:52:55.496Z,46.40
2019-02-10T11:53:55.489Z,46.88
2019-02-10T11:54:55.447Z,46.80
2019-02-10T11:55:55.447Z,46.68
2019-02-10T11:56:55.421Z,46.68
2019-02-10T11:57:55.431Z,46.70
2019-02-10T11:58:55.405Z,46.60
2019-02-10T11:59:55.399Z,46.68
2019-02-10T12:00:55.377Z,46.68
2019-02-10T12:01:55.370Z,46.18
2019-02-10T12:02:55.380Z,46.20
2019-02-10T12:03:55.337Z,46.48
2019-02-10T12:04:55.328Z,46.18
2019-02-10T12:05:55.378Z,46.48
2019-02-10T12:06:55.305Z,45.87
2019-02-10T12:07:55.339Z,45.90
2019-02-10T12:08:55.281Z,46.18
2019-02-10T12:09:55.284Z,46.18
2019-02-10T12:10:55.282Z,45.87
2019-02-10T12:11:55.255Z,45.98
2019-02-10T12:12:55.276Z,45.98
2019-02-10T12:13:55.228Z,45.87
2019-02-10T12:14:55.260Z,46.18
2019-02-10T12:15:55.223Z,45.57
2019-02-10T12:16:55.263Z,45.67
2019-02-10T12:17:55.287Z,45.67
2019-02-10T12:18:55.254Z,44.47
2019-02-10T12:19:55.239Z,44.77
2019-02-10T12:20:55.198Z,44.77
2019-02-10T12:21:55.194Z,44.37
2019-02-10T12:22:55.245Z,44.67
2019-02-10T12:23:55.173Z,44.97
2019-02-10T12:24:55.190Z,44.77
2019-02-10T12:25:55.142Z,44.57
2019-02-10T12:26:55.141Z,44.57
2019-02-10T12:27:55.125Z,44.97
2019-02-10T12:28:55.081Z,44.37
2019-02-10T12:29:55.062Z,44.77
2019-02-10T12:30:55.047Z,44.17
2019-02-10T12:31:55.059Z,44.77
2019-02-10T12:32:55.130Z,44.57
2019-02-10T12:33:55.012Z,44.35
2019-02-10T12:34:55.040Z,43.76
2019-02-10T12:35:58.292Z,44.27
2019-02-10T12:36:54.999Z,44.27
2019-02-10T12:37:54.977Z,43.76
2019-02-10T12:38:54.987Z,44.24
2019-02-10T12:39:59.795Z,44.47
2019-02-10T12:40:54.943Z,44.04
2019-02-10T12:41:54.940Z,44.37
2019-02-10T12:42:54.911Z,43.74
2019-02-10T12:43:54.932Z,43.74
2019-02-10T12:44:54.897Z,44.24
2019-02-10T12:45:54.916Z,44.35
2019-02-10T12:46:54.901Z,43.44
2019-02-10T12:47:54.855Z,43.34
2019-02-10T12:48:54.876Z,43.24
2019-02-10T12:49:54.880Z,43.74
2019-02-10T12:50:55.103Z,43.54
2019-02-10T12:51:54.818Z,43.54